Higley, Arizona
Current Conditions -  °F | °C
As of 8:47 AM on Monday 26 Jan 2015 (Local Time) from KIWA Reporting Station
Broken Clouds Broken Clouds  
Wind Chill: 44°   Ceiling: 10000
Heat Index: 46°   Visibility: 45mi
Dew Point: 30°   Wind: 6mph
Humidity: 53%   Direction: 80°E
Pressure: 30.14"   Gusts: NA
Location:  33.31°N, 111.72°W
Report Text: KIWA 261547Z 08005KT 45SM SCT080 BKN100 08/M01 A3014
Loading
Personal Weather Stations






























Interactive Weather Map New forecast layout! Learn more

10-Day Weather Forecast

Advertisements
Track Severe Weather on mobile